Melrose, Iowa
Current Conditions -  °F | °C
As of 10:15 AM on Friday 24 Oct 2014 (Local Time) from KCNC Reporting Station
Haze Haze  
Wind Chill: 59°   Ceiling: 300
Heat Index: 59°   Visibility: 1.5mi
Dew Point: 59°   Wind: 13mph
Humidity: 100%   Direction: 200°SSW
Pressure: 30"   Gusts: NA
Location:  40.98°N, 93.05°W
Report Text: KCNC 241515Z AUTO 20011KT 1 1/2SM BR OVC003 15/15 A3000 RMK AO2
Loading
Personal Weather Stations






























Interactive Weather Map
Tropical Storm Tracking
New forecast layout! Learn more

10-Day Weather Forecast

Advertisements
Track Severe Weather on mobile